createdAt,value
2017-11-08T00:01:38.828Z,40.60
2017-11-08T00:04:07.069Z,47.17
2017-11-08T00:06:34.544Z,43.70
2017-11-08T00:09:02.065Z,49.35
2017-11-08T00:11:30.325Z,48.55
2017-11-08T00:13:58.587Z,56.10
2017-11-08T00:16:26.849Z,53.92
2017-11-08T00:18:58.041Z,55.47
2017-11-08T00:21:31.976Z,52.45
2017-11-08T00:24:00.225Z,46.75
2017-11-08T00:26:28.453Z,54.17
2017-11-08T00:28:55.921Z,50.63
2017-11-08T00:31:23.474Z,45.38
2017-11-08T00:33:51.717Z,48.35
2017-11-08T00:36:19.280Z,46.65
2017-11-08T00:38:47.545Z,40.45
2017-11-08T00:41:15.776Z,45.78
2017-11-08T00:43:43.232Z,45.85
2017-11-08T00:46:11.493Z,43.55
2017-11-08T00:48:39.761Z,38.63
2017-11-08T00:51:07.985Z,40.50
2017-11-08T00:53:35.565Z,37.97
2017-11-08T00:56:03.791Z,47.53
2017-11-08T00:58:31.253Z,40.63
2017-11-08T01:00:59.724Z,43.28
2017-11-08T01:03:27.957Z,47.83
2017-11-08T01:05:55.424Z,42.50
2017-11-08T01:08:22.968Z,42.08
2017-11-08T01:10:51.242Z,44.28
2017-11-08T01:13:19.461Z,39.28
2017-11-08T01:15:46.919Z,43.10
2017-11-08T01:18:14.408Z,50.25
2017-11-08T01:20:41.917Z,45.30
2017-11-08T01:23:10.141Z,43.70
2017-11-08T01:25:37.624Z,47.62
2017-11-08T01:28:05.881Z,39.90
2017-11-08T01:30:33.422Z,46.42
2017-11-08T01:33:01.665Z,49.20
2017-11-08T01:35:29.132Z,41.92
2017-11-08T01:37:57.358Z,45.15
2017-11-08T01:40:24.929Z,42.47
2017-11-08T01:42:53.148Z,47.05
2017-11-08T01:45:20.629Z,45.53
2017-11-08T01:47:48.895Z,49.85
2017-11-08T01:50:17.124Z,44.17
2017-11-08T01:52:44.692Z,50.40
2017-11-08T01:55:12.953Z,49.10
2017-11-08T01:57:41.279Z,46.30
2017-11-08T02:00:08.763Z,48.72
2017-11-08T02:02:36.981Z,46.67
2017-11-08T02:05:04.464Z,49.30
2017-11-08T02:07:32.693Z,47.80
2017-11-08T02:10:00.161Z,54.47
2017-11-08T02:12:28.625Z,47.42
2017-11-08T02:14:56.881Z,48.35
2017-11-08T02:17:24.429Z,50.05
2017-11-08T02:19:52.688Z,47.30
2017-11-08T02:22:20.913Z,53.67
2017-11-08T02:24:48.388Z,50.10
2017-11-08T02:27:17.429Z,48.45
2017-11-08T02:29:44.897Z,48.53
2017-11-08T02:32:14.950Z,51.30
2017-11-08T02:34:42.428Z,50.95
2017-11-08T02:37:10.689Z,53.15
2017-11-08T02:39:38.944Z,44.78
2017-11-08T02:42:07.177Z,48.78
2017-11-08T02:44:34.701Z,54.00
2017-11-08T02:47:02.173Z,52.60
2017-11-08T02:49:32.612Z,51.25
2017-11-08T02:52:00.835Z,47.75
2017-11-08T02:54:28.412Z,55.42
2017-11-08T02:56:55.864Z,45.97
2017-11-08T02:59:23.345Z,44.97
2017-11-08T03:01:51.568Z,51.60
2017-11-08T03:04:21.868Z,52.10
2017-11-08T03:06:49.446Z,46.03
2017-11-08T03:09:17.672Z,48.63
2017-11-08T03:11:45.133Z,49.53
2017-11-08T03:14:12.626Z,45.75
2017-11-08T03:16:40.233Z,46.37
2017-11-08T03:19:08.492Z,51.28
2017-11-08T03:21:36.752Z,48.38
2017-11-08T03:24:04.215Z,50.10
2017-11-08T03:26:31.777Z,52.42
2017-11-08T03:29:00.133Z,52.28
2017-11-08T03:31:27.673Z,44.85
2017-11-08T03:33:55.192Z,48.47
2017-11-08T03:36:23.438Z,48.15
2017-11-08T03:38:50.901Z,57.45
2017-11-08T03:41:19.152Z,52.85
2017-11-08T03:43:47.406Z,50.17
2017-11-08T03:46:14.956Z,56.33
2017-11-08T03:48:43.181Z,52.78
2017-11-08T03:51:10.862Z,48.35
2017-11-08T03:53:39.089Z,50.17
2017-11-08T03:56:06.561Z,51.37
2017-11-08T03:58:34.840Z,51.08
2017-11-08T04:01:03.189Z,42.47
2017-11-08T04:03:31.447Z,53.08
2017-11-08T04:05:59.713Z,47.45
2017-11-08T04:08:28.068Z,53.20
2017-11-08T04:10:56.333Z,49.28
2017-11-08T04:13:24.564Z,50.05
2017-11-08T04:15:52.137Z,46.05
2017-11-08T04:18:20.361Z,47.78
2017-11-08T04:20:47.941Z,54.15
2017-11-08T04:23:16.165Z,51.00
2017-11-08T04:25:43.626Z,54.72
2017-11-08T04:28:11.288Z,47.95
2017-11-08T04:30:39.509Z,46.03
2017-11-08T04:33:06.969Z,48.83
2017-11-08T04:35:34.470Z,54.97
2017-11-08T04:38:01.929Z,51.17
2017-11-08T04:40:29.393Z,51.00
2017-11-08T04:42:56.958Z,44.65
2017-11-08T04:45:25.196Z,58.42
2017-11-08T04:47:53.472Z,48.92
2017-11-08T04:50:21.120Z,54.05
2017-11-08T04:52:49.345Z,51.35
2017-11-08T04:55:16.808Z,53.97
2017-11-08T04:57:44.285Z,52.62
2017-11-08T05:00:11.809Z,50.10
2017-11-08T05:02:40.069Z,51.95
2017-11-08T05:05:08.324Z,52.42
2017-11-08T05:07:36.589Z,55.95
2017-11-08T05:10:04.084Z,49.60
2017-11-08T05:12:32.313Z,54.47
2017-11-08T05:14:59.797Z,55.22
2017-11-08T05:17:28.161Z,50.90
2017-11-08T05:19:56.385Z,57.67
2017-11-08T05:22:23.861Z,50.20
2017-11-08T05:24:52.096Z,56.03
2017-11-08T05:27:19.673Z,53.55
2017-11-08T05:29:47.901Z,51.42
2017-11-08T05:32:15.370Z,53.05
2017-11-08T05:34:43.629Z,55.63
2017-11-08T05:37:11.867Z,49.95
2017-11-08T05:39:39.428Z,57.20
2017-11-08T05:42:07.677Z,52.90
2017-11-08T05:44:35.146Z,53.72
2017-11-08T05:47:03.373Z,49.30
2017-11-08T05:49:30.845Z,56.55
2017-11-08T05:51:59.073Z,58.80
2017-11-08T05:54:26.533Z,47.92
2017-11-08T05:56:54.797Z,57.65
2017-11-08T05:59:23.053Z,51.53
2017-11-08T06:01:51.313Z,53.60
2017-11-08T06:04:19.541Z,54.85
2017-11-08T06:06:47.115Z,54.17
2017-11-08T06:09:15.354Z,57.60
2017-11-08T06:11:42.813Z,53.53
2017-11-08T06:14:10.297Z,51.20
2017-11-08T06:16:37.749Z,50.03
2017-11-08T06:19:05.257Z,55.10
2017-11-08T06:21:33.510Z,51.92
2017-11-08T06:24:01.768Z,62.03
2017-11-08T06:26:29.988Z,51.03
2017-11-08T06:28:57.464Z,56.58
2017-11-08T06:31:25.729Z,53.67
2017-11-08T06:33:53.960Z,54.95
2017-11-08T06:36:21.529Z,55.33
2017-11-08T06:38:49.792Z,58.72
2017-11-08T06:41:18.057Z,54.92
2017-11-08T06:43:46.413Z,51.92
2017-11-08T06:46:14.643Z,51.72
2017-11-08T06:48:42.114Z,53.08
2017-11-08T06:51:12.261Z,50.08
2017-11-08T06:53:42.563Z,51.88
2017-11-08T06:56:10.065Z,50.17
2017-11-08T06:58:38.324Z,53.83
2017-11-08T07:01:06.579Z,52.13
2017-11-08T07:03:34.241Z,50.22
2017-11-08T07:06:02.502Z,52.33
2017-11-08T07:08:30.752Z,50.97
2017-11-08T07:10:58.981Z,47.55
2017-11-08T07:13:26.473Z,43.83
2017-11-08T07:15:54.821Z,49.33
2017-11-08T07:18:23.044Z,46.90
2017-11-08T07:20:50.517Z,50.30
2017-11-08T07:23:18.767Z,48.97
2017-11-08T07:25:46.326Z,54.17
2017-11-08T07:28:14.588Z,48.30
2017-11-08T07:30:42.949Z,51.28
2017-11-08T07:33:11.206Z,44.90
2017-11-08T07:35:39.429Z,51.47
2017-11-08T07:38:06.904Z,51.60
2017-11-08T07:40:34.370Z,47.38
2017-11-08T07:43:02.724Z,49.85
2017-11-08T07:45:30.948Z,53.85
2017-11-08T07:47:58.514Z,51.17
2017-11-08T07:50:26.756Z,50.22
2017-11-08T07:52:54.324Z,50.90
2017-11-08T07:55:22.546Z,50.53
2017-11-08T07:57:50.026Z,49.13
2017-11-08T08:00:18.281Z,48.20
2017-11-08T08:02:46.537Z,49.13
2017-11-08T08:05:14.804Z,49.80
2017-11-08T08:07:43.041Z,48.85
2017-11-08T08:10:10.607Z,48.30
2017-11-08T08:12:38.832Z,55.03
2017-11-08T08:15:06.296Z,50.10
2017-11-08T08:17:33.764Z,51.67
2017-11-08T08:20:01.239Z,54.28
2017-11-08T08:22:28.734Z,48.80
2017-11-08T08:24:58.836Z,52.22
2017-11-08T08:27:27.060Z,48.03
2017-11-08T08:29:54.525Z,48.50
2017-11-08T08:32:22.084Z,51.30
2017-11-08T08:34:50.312Z,60.88
2017-11-08T08:37:17.901Z,57.47
2017-11-08T08:39:45.360Z,51.65
2017-11-08T08:42:12.876Z,60.58
2017-11-08T08:44:41.123Z,54.13
2017-11-08T08:47:08.585Z,55.00
2017-11-08T08:49:36.052Z,54.28
2017-11-08T08:52:03.557Z,50.75
2017-11-08T08:54:31.822Z,45.17
2017-11-08T08:57:00.073Z,52.25
2017-11-08T08:59:28.337Z,53.42
2017-11-08T09:01:56.560Z,50.67
2017-11-08T09:04:24.040Z,49.58
2017-11-08T09:06:52.300Z,51.90
2017-11-08T09:09:20.561Z,53.17
2017-11-08T09:11:48.781Z,51.33
2017-11-08T09:14:16.248Z,58.58
2017-11-08T09:16:43.801Z,52.97
2017-11-08T09:19:12.028Z,54.10
2017-11-08T09:21:39.505Z,55.28
2017-11-08T09:24:07.864Z,53.45
2017-11-08T09:26:36.089Z,50.70
2017-11-08T09:29:03.549Z,51.17
2017-11-08T09:31:37.153Z,48.47
2017-11-08T09:34:05.387Z,48.53
2017-11-08T09:36:34.699Z,47.72
2017-11-08T09:39:03.054Z,54.55
2017-11-08T09:41:31.321Z,42.00
2017-11-08T09:43:59.549Z,52.45
2017-11-08T09:46:27.220Z,56.40
2017-11-08T09:48:55.454Z,43.53
2017-11-08T09:51:22.923Z,44.10
2017-11-08T09:53:50.405Z,53.92
2017-11-08T09:56:18.709Z,46.88
2017-11-08T09:58:46.160Z,49.67
2017-11-08T10:01:16.320Z,50.15
2017-11-08T10:03:43.816Z,45.85
2017-11-08T10:06:12.108Z,52.97
2017-11-08T10:08:41.275Z,45.40
2017-11-08T10:11:12.755Z,53.58
2017-11-08T10:13:40.241Z,54.92
2017-11-08T10:16:08.484Z,56.58
2017-11-08T10:18:35.948Z,52.15
2017-11-08T10:21:03.454Z,43.28
2017-11-08T10:23:30.893Z,49.05
2017-11-08T10:25:59.152Z,47.20
2017-11-08T10:28:26.808Z,48.22
2017-11-08T10:30:54.372Z,49.75
2017-11-08T10:33:22.633Z,52.17
2017-11-08T10:35:50.870Z,47.90
2017-11-08T10:38:18.431Z,45.12
2017-11-08T10:40:45.893Z,49.10
2017-11-08T10:43:13.386Z,45.60
2017-11-08T10:45:41.757Z,52.42
2017-11-08T10:48:10.017Z,46.67
2017-11-08T10:50:38.252Z,56.88
2017-11-08T10:53:05.817Z,51.35
2017-11-08T10:55:34.078Z,50.80
2017-11-08T10:58:02.317Z,51.33
2017-11-08T11:00:32.613Z,54.83
2017-11-08T11:03:00.076Z,59.75
2017-11-08T11:05:27.638Z,44.10
2017-11-08T11:07:55.890Z,49.22
2017-11-08T11:10:24.250Z,48.47
2017-11-08T11:12:52.515Z,48.70
2017-11-08T11:15:20.744Z,47.22
2017-11-08T11:17:48.314Z,52.00
2017-11-08T11:20:18.518Z,54.67
2017-11-08T11:22:46.780Z,55.92
2017-11-08T11:25:16.994Z,54.83
2017-11-08T11:27:45.249Z,55.12
2017-11-08T11:30:13.522Z,53.55
2017-11-08T11:32:43.726Z,57.72
2017-11-08T11:35:11.996Z,61.15
2017-11-08T11:37:45.033Z,52.42
2017-11-08T11:40:12.594Z,55.78
2017-11-08T11:42:40.858Z,57.95
2017-11-08T11:45:09.115Z,52.75
2017-11-08T11:47:37.340Z,63.53
2017-11-08T11:50:04.806Z,56.03
2017-11-08T11:52:32.366Z,58.97
2017-11-08T11:55:00.633Z,72.50
2017-11-08T11:57:28.861Z,62.22
2017-11-08T11:59:57.860Z,57.17
2017-11-08T12:02:26.093Z,62.40
2017-11-08T12:04:53.557Z,60.90
2017-11-08T12:07:21.030Z,64.25
2017-11-08T12:09:48.554Z,60.50
2017-11-08T12:12:16.814Z,61.95
2017-11-08T12:14:45.174Z,56.65
2017-11-08T12:17:13.438Z,56.30
2017-11-08T12:19:41.697Z,63.35
2017-11-08T12:22:09.938Z,63.20
2017-11-08T12:24:37.410Z,64.15
2017-11-08T12:27:05.666Z,60.38
2017-11-08T12:29:36.829Z,56.10
2017-11-08T12:32:04.297Z,59.28
2017-11-08T12:34:31.874Z,59.85
2017-11-08T12:37:00.238Z,62.28
2017-11-08T12:39:28.605Z,59.92
2017-11-08T12:42:14.609Z,56.95
2017-11-08T12:44:47.717Z,66.15
2017-11-08T12:47:15.293Z,70.30
2017-11-08T12:49:43.553Z,67.03
2017-11-08T12:52:11.801Z,62.45
2017-11-08T12:54:40.066Z,68.03
2017-11-08T12:57:08.338Z,56.78
2017-11-08T12:59:35.825Z,65.75
2017-11-08T13:02:03.409Z,59.17
2017-11-08T13:04:30.890Z,65.12
2017-11-08T13:06:58.371Z,68.35
2017-11-08T13:09:25.869Z,64.50
2017-11-08T13:11:53.341Z,69.50
2017-11-08T13:14:21.295Z,69.72
2017-11-08T13:16:48.772Z,69.55
2017-11-08T13:19:16.252Z,71.87
2017-11-08T13:21:43.770Z,67.32
2017-11-08T13:24:12.029Z,69.12
2017-11-08T13:26:40.268Z,65.53
2017-11-08T13:29:07.842Z,70.03
2017-11-08T13:31:36.086Z,66.43
2017-11-08T13:34:03.656Z,63.83
2017-11-08T13:36:31.133Z,71.35
2017-11-08T13:38:58.627Z,75.57
2017-11-08T13:41:27.094Z,71.45
2017-11-08T13:43:55.325Z,64.40
2017-11-08T13:46:22.890Z,60.83
2017-11-08T13:48:51.141Z,71.75
2017-11-08T13:51:18.617Z,64.78
2017-11-08T13:53:46.677Z,61.90
2017-11-08T13:56:14.165Z,76.10
2017-11-08T13:58:41.702Z,76.90
2017-11-08T14:01:09.183Z,73.93
2017-11-08T14:03:37.441Z,72.25
2017-11-08T14:06:05.677Z,88.80
2017-11-08T14:08:33.265Z,151.05
2017-11-08T14:11:01.522Z,103.93
2017-11-08T14:13:29.752Z,81.95
2017-11-08T14:15:57.226Z,117.10
2017-11-08T14:18:24.853Z,101.87
2017-11-08T14:20:53.089Z,94.28
2017-11-08T14:23:20.557Z,81.75
2017-11-08T14:25:48.913Z,81.18
2017-11-08T14:28:17.184Z,76.07
2017-11-08T14:30:45.418Z,73.60
2017-11-08T14:33:12.902Z,92.10
2017-11-08T14:35:43.298Z,86.15
2017-11-08T14:38:11.658Z,77.50
2017-11-08T14:40:39.901Z,80.03
2017-11-08T14:43:07.458Z,107.82
2017-11-08T14:45:35.737Z,97.43
2017-11-08T14:48:03.286Z,105.70
2017-11-08T14:50:30.750Z,74.43
2017-11-08T14:53:03.885Z,75.80
2017-11-08T14:55:32.149Z,71.85
2017-11-08T14:58:00.457Z,78.40
2017-11-08T15:00:31.017Z,76.78
2017-11-08T15:02:59.330Z,78.07
2017-11-08T15:05:26.818Z,77.75
2017-11-08T15:07:55.066Z,76.25
2017-11-08T15:10:22.536Z,78.32
2017-11-08T15:12:50.117Z,78.40
2017-11-08T15:15:19.577Z,79.07
2017-11-08T15:17:47.097Z,84.53
2017-11-08T15:20:20.981Z,87.95
2017-11-08T15:22:48.450Z,65.68
2017-11-08T15:25:15.918Z,120.18
2017-11-08T15:27:43.406Z,168.87
2017-11-08T15:30:16.650Z,191.50
2017-11-08T15:32:46.989Z,189.77
2017-11-08T15:35:14.462Z,121.35
2017-11-08T15:37:41.965Z,108.55
2017-11-08T15:40:09.446Z,132.95
2017-11-08T15:42:36.922Z,93.03
2017-11-08T15:45:04.541Z,82.93
2017-11-08T15:47:37.893Z,96.43
2017-11-08T15:50:06.150Z,92.97
2017-11-08T15:52:34.381Z,93.20
2017-11-08T15:55:01.958Z,75.28
2017-11-08T15:57:30.233Z,77.95
2017-11-08T15:59:58.485Z,68.28
2017-11-08T16:02:28.687Z,80.65
2017-11-08T16:04:56.914Z,79.05
2017-11-08T16:07:24.403Z,74.22
2017-11-08T16:09:51.884Z,71.28
2017-11-08T16:12:19.338Z,74.93
2017-11-08T16:14:46.810Z,75.90
2017-11-08T16:17:15.051Z,85.93
2017-11-08T16:19:42.515Z,70.22
2017-11-08T16:22:10.875Z,86.55
2017-11-08T16:24:39.133Z,79.87
2017-11-08T16:27:07.397Z,82.65
2017-11-08T16:29:35.706Z,81.90
2017-11-08T16:32:05.146Z,76.60
2017-11-08T16:34:33.510Z,75.40
2017-11-08T16:37:01.732Z,75.22
2017-11-08T16:39:30.817Z,74.70
2017-11-08T16:41:58.293Z,74.12
2017-11-08T16:44:26.554Z,78.85
2017-11-08T16:46:54.809Z,72.75
2017-11-08T16:49:23.073Z,69.60
2017-11-08T16:51:51.306Z,66.47
2017-11-08T16:54:18.769Z,75.10
2017-11-08T16:56:47.034Z,65.72
2017-11-08T16:59:15.369Z,80.18
2017-11-08T17:01:42.838Z,68.62
2017-11-08T17:04:11.297Z,74.68
2017-11-08T17:06:39.530Z,67.12
2017-11-08T17:09:06.993Z,78.18
2017-11-08T17:11:34.609Z,79.68
2017-11-08T17:14:02.091Z,71.00
2017-11-08T17:16:30.328Z,72.80
2017-11-08T17:18:57.891Z,74.68
2017-11-08T17:21:26.130Z,79.30
2017-11-08T17:23:53.694Z,89.97
2017-11-08T17:26:21.941Z,81.25
2017-11-08T17:28:49.407Z,72.55
2017-11-08T17:31:17.657Z,80.05
2017-11-08T17:33:46.410Z,75.72
2017-11-08T17:36:13.900Z,86.37
2017-11-08T17:38:41.364Z,81.75
2017-11-08T17:41:08.825Z,75.03
2017-11-08T17:43:36.301Z,74.95
2017-11-08T17:46:04.539Z,81.53
2017-11-08T17:48:32.202Z,80.12
2017-11-08T17:51:00.462Z,78.15
2017-11-08T17:53:28.721Z,85.05
2017-11-08T17:55:56.961Z,82.37
2017-11-08T17:58:24.472Z,88.82
2017-11-08T18:00:51.939Z,82.47
2017-11-08T18:03:19.612Z,86.32
2017-11-08T18:05:47.842Z,92.40
2017-11-08T18:08:15.310Z,96.40
2017-11-08T18:10:43.549Z,97.40
2017-11-08T18:13:11.117Z,101.28
2017-11-08T18:15:39.377Z,104.32
2017-11-08T18:18:07.614Z,93.45
2017-11-08T18:20:35.188Z,94.65
2017-11-08T18:23:02.677Z,97.97
2017-11-08T18:25:30.165Z,92.72
2017-11-08T18:27:58.407Z,96.03
2017-11-08T18:30:25.892Z,100.62
2017-11-08T18:32:53.410Z,96.47
2017-11-08T18:35:21.662Z,90.57
2017-11-08T18:37:49.898Z,103.85
2017-11-08T18:40:17.372Z,91.47
2017-11-08T18:42:45.598Z,89.62
2017-11-08T18:45:13.081Z,101.60
2017-11-08T18:47:41.311Z,106.45
2017-11-08T18:50:08.790Z,88.65
2017-11-08T18:52:36.356Z,92.93
2017-11-08T18:55:03.865Z,88.20
2017-11-08T18:57:32.106Z,97.12
2017-11-08T18:59:59.662Z,84.43
2017-11-08T19:02:27.898Z,104.03
2017-11-08T19:04:55.462Z,107.53
2017-11-08T19:07:23.729Z,87.90
2017-11-08T19:09:52.011Z,94.35
2017-11-08T19:12:19.445Z,93.93
2017-11-08T19:14:46.923Z,88.82
2017-11-08T19:17:14.393Z,90.18
2017-11-08T19:19:41.877Z,97.12
2017-11-08T19:22:09.438Z,88.25
2017-11-08T19:24:36.906Z,89.85
2017-11-08T19:27:04.385Z,88.20
2017-11-08T19:29:32.617Z,85.78
2017-11-08T19:32:00.089Z,90.28
2017-11-08T19:34:28.341Z,95.53
2017-11-08T19:36:56.574Z,80.10
2017-11-08T19:39:24.058Z,80.90
2017-11-08T19:41:51.694Z,86.28
2017-11-08T19:44:19.938Z,82.15
2017-11-08T19:46:48.221Z,83.80
2017-11-08T19:49:16.465Z,88.82
2017-11-08T19:51:44.744Z,91.18
2017-11-08T19:54:12.995Z,84.75
2017-11-08T19:56:41.354Z,87.68
2017-11-08T19:59:09.595Z,92.93
2017-11-08T20:01:37.152Z,91.75
2017-11-08T20:04:05.573Z,99.13
2017-11-08T20:06:33.090Z,81.75
2017-11-08T20:09:00.606Z,87.40
2017-11-08T20:11:28.874Z,80.43
2017-11-08T20:13:57.113Z,93.68
2017-11-08T20:16:26.218Z,86.03
2017-11-08T20:18:54.474Z,83.82
2017-11-08T20:21:22.724Z,94.50
2017-11-08T20:23:50.973Z,91.53
2017-11-08T20:26:18.438Z,91.93
2017-11-08T20:28:46.707Z,96.47
2017-11-08T20:31:14.234Z,87.95
2017-11-08T20:33:42.453Z,93.35
2017-11-08T20:36:09.952Z,92.65
2017-11-08T20:38:37.473Z,85.95
2017-11-08T20:41:05.022Z,81.12
2017-11-08T20:43:33.249Z,89.78
2017-11-08T20:46:00.829Z,97.05
2017-11-08T20:48:29.080Z,99.07
2017-11-08T20:50:57.315Z,90.78
2017-11-08T20:53:24.891Z,77.05
2017-11-08T20:55:53.262Z,88.03
2017-11-08T20:58:20.790Z,90.95
2017-11-08T21:00:49.042Z,104.32
2017-11-08T21:03:17.319Z,97.40
2017-11-08T21:05:44.827Z,91.95
2017-11-08T21:08:12.290Z,97.03
2017-11-08T21:10:40.553Z,93.12
2017-11-08T21:13:08.022Z,89.10
2017-11-08T21:15:35.495Z,94.57
2017-11-08T21:18:03.026Z,88.87
2017-11-08T21:20:30.497Z,92.88
2017-11-08T21:22:57.966Z,91.47
2017-11-08T21:25:26.226Z,100.07
2017-11-08T21:27:54.487Z,97.28
2017-11-08T21:30:22.749Z,96.50
2017-11-08T21:32:50.253Z,97.05
2017-11-08T21:35:18.521Z,81.20
2017-11-08T21:37:46.759Z,78.90
2017-11-08T21:40:14.249Z,85.07
2017-11-08T21:42:41.765Z,85.80
2017-11-08T21:45:09.998Z,85.28
2017-11-08T21:47:37.558Z,95.93
2017-11-08T21:50:05.040Z,96.97
2017-11-08T21:52:32.510Z,98.30
2017-11-08T21:55:00.770Z,77.25
2017-11-08T21:57:29.009Z,86.87
2017-11-08T21:59:57.484Z,85.78
2017-11-08T22:02:25.829Z,79.45
2017-11-08T22:04:53.322Z,86.28
2017-11-08T22:07:21.538Z,85.95
2017-11-08T22:09:49.097Z,87.43
2017-11-08T22:12:17.358Z,96.37
2017-11-08T22:14:45.590Z,72.32
2017-11-08T22:17:13.261Z,81.15
2017-11-08T22:19:41.493Z,87.22
2017-11-08T22:22:08.957Z,86.45
2017-11-08T22:24:37.351Z,86.47
2017-11-08T22:27:04.817Z,90.78
2017-11-08T22:29:32.317Z,85.12
2017-11-08T22:32:00.686Z,80.30
2017-11-08T22:34:33.258Z,85.70
2017-11-08T22:37:00.791Z,82.50
2017-11-08T22:39:29.017Z,82.20
2017-11-08T22:41:56.586Z,81.37
2017-11-08T22:44:24.845Z,82.90
2017-11-08T22:46:53.081Z,82.12
2017-11-08T22:49:20.549Z,95.12
2017-11-08T22:51:48.842Z,91.15
2017-11-08T22:54:16.309Z,87.12
2017-11-08T22:56:43.802Z,84.32
2017-11-08T22:59:12.154Z,80.40
2017-11-08T23:01:40.414Z,88.03
2017-11-08T23:04:08.642Z,92.07
2017-11-08T23:06:36.322Z,95.95
2017-11-08T23:09:04.566Z,81.72
2017-11-08T23:11:33.845Z,85.80
2017-11-08T23:14:01.513Z,82.10
2017-11-08T23:16:29.737Z,93.57
2017-11-08T23:18:57.197Z,82.35
2017-11-08T23:21:26.177Z,93.22
2017-11-08T23:23:53.649Z,85.80
2017-11-08T23:26:21.875Z,87.30
2017-11-08T23:28:49.444Z,91.15
2017-11-08T23:31:17.672Z,79.65
2017-11-08T23:33:45.135Z,77.00
2017-11-08T23:36:13.394Z,82.00
2017-11-08T23:38:41.626Z,77.72
2017-11-08T23:41:09.094Z,89.70
2017-11-08T23:43:36.574Z,78.10
2017-11-08T23:46:04.034Z,81.82
2017-11-08T23:48:31.524Z,83.30
2017-11-08T23:50:59.794Z,84.13
2017-11-08T23:53:28.045Z,80.40
2017-11-08T23:55:56.405Z,90.97
2017-11-08T23:58:24.671Z,83.60
